createdAt,value
2022-11-24T00:01:36.165Z,19.40
2022-11-24T00:06:58.512Z,19.00
2022-11-24T00:12:20.227Z,17.80
2022-11-24T00:17:42.029Z,19.70
2022-11-24T00:23:04.588Z,18.00
2022-11-24T00:28:26.818Z,18.90
2022-11-24T00:33:50.551Z,18.60
2022-11-24T00:39:14.244Z,18.30
2022-11-24T00:44:36.020Z,22.70
2022-11-24T00:49:57.845Z,36.70
2022-11-24T00:55:19.875Z,18.70
2022-11-24T01:00:41.906Z,18.70
2022-11-24T01:06:05.442Z,19.60
2022-11-24T01:11:54.966Z,18.30
2022-11-24T01:17:16.997Z,18.50
2022-11-24T01:22:39.432Z,19.60
2022-11-24T01:28:01.456Z,20.40
2022-11-24T01:33:23.084Z,20.20
2022-11-24T01:38:45.018Z,20.00
2022-11-24T01:44:41.064Z,19.40
2022-11-24T01:50:03.760Z,19.70
2022-11-24T01:55:29.797Z,18.30
2022-11-24T02:00:52.372Z,27.30
2022-11-24T02:06:17.556Z,20.70
2022-11-24T02:11:40.090Z,19.40
2022-11-24T02:17:01.871Z,20.40
2022-11-24T02:22:29.568Z,15.90
2022-11-24T02:27:54.212Z,18.10
2022-11-24T02:33:16.894Z,16.00
2022-11-24T02:38:38.920Z,15.50
2022-11-24T02:44:01.853Z,12.90
2022-11-24T02:49:24.687Z,14.60
2022-11-24T02:54:46.716Z,13.60
2022-11-24T03:00:09.749Z,11.70
2022-11-24T03:05:31.680Z,13.80
2022-11-24T03:10:54.713Z,14.60
2022-11-24T03:16:16.796Z,14.20
2022-11-24T03:21:38.871Z,16.00
2022-11-24T03:27:01.101Z,15.60
2022-11-24T03:32:23.036Z,14.70
2022-11-24T03:37:45.076Z,14.10
2022-11-24T03:43:07.098Z,14.50
2022-11-24T03:48:29.020Z,15.90
2022-11-24T03:53:50.749Z,14.80
2022-11-24T03:59:12.677Z,15.00
2022-11-24T04:04:34.993Z,14.20
2022-11-24T04:09:57.042Z,14.00
2022-11-24T04:15:20.183Z,15.20
2022-11-24T04:20:42.836Z,13.80
2022-11-24T04:26:04.633Z,14.90
2022-11-24T04:31:26.409Z,14.50
2022-11-24T04:36:48.694Z,13.90
2022-11-24T04:42:11.028Z,16.20
2022-11-24T04:47:33.555Z,12.50
2022-11-24T04:52:55.586Z,16.40
2022-11-24T04:58:17.716Z,13.30
2022-11-24T05:03:40.448Z,20.60
2022-11-24T05:09:02.193Z,18.50
2022-11-24T05:14:24.234Z,23.80
2022-11-24T05:19:46.090Z,18.30
2022-11-24T05:25:08.738Z,17.30
2022-11-24T05:30:34.007Z,25.30
2022-11-24T05:36:01.314Z,16.50
2022-11-24T05:41:23.586Z,22.30
2022-11-24T05:46:45.457Z,18.20
2022-11-24T05:52:07.444Z,30.30
2022-11-24T05:57:29.373Z,22.90
2022-11-24T06:02:51.263Z,25.70
2022-11-24T06:08:13.658Z,15.90
2022-11-24T06:13:35.929Z,19.90
2022-11-24T06:18:58.195Z,15.80
2022-11-24T06:24:20.332Z,16.60
2022-11-24T06:29:42.851Z,15.80
2022-11-24T06:35:06.590Z,15.30
2022-11-24T06:40:28.521Z,16.60
2022-11-24T06:45:53.604Z,16.40
2022-11-24T06:51:15.390Z,16.90
2022-11-24T06:56:37.620Z,20.90
2022-11-24T07:01:59.613Z,19.20
2022-11-24T07:07:21.661Z,19.50
2022-11-24T07:12:43.709Z,16.90
2022-11-24T07:18:05.539Z,18.10
2022-11-24T07:23:27.569Z,17.30
2022-11-24T07:28:49.454Z,17.20
2022-11-24T07:34:11.629Z,15.20
2022-11-24T07:39:33.779Z,17.50
2022-11-24T07:44:55.690Z,16.60
2022-11-24T07:50:17.820Z,15.40
2022-11-24T07:55:39.490Z,15.20
2022-11-24T08:01:15.801Z,19.20
2022-11-24T08:06:42.073Z,20.40
2022-11-24T08:12:07.814Z,19.50
2022-11-24T08:17:29.861Z,19.70
2022-11-24T08:22:51.981Z,19.40
2022-11-24T08:28:14.030Z,20.90
2022-11-24T08:33:36.647Z,21.80
2022-11-24T08:38:59.801Z,21.70
2022-11-24T08:44:21.779Z,23.60
2022-11-24T08:49:43.635Z,22.10
2022-11-24T08:55:05.937Z,23.90
2022-11-24T09:00:27.739Z,25.80
2022-11-24T09:05:52.546Z,25.90
2022-11-24T09:11:17.333Z,24.60
2022-11-24T09:16:39.325Z,26.70
2022-11-24T09:22:01.239Z,25.00
2022-11-24T09:27:23.375Z,28.60
2022-11-24T09:32:45.000Z,30.50
2022-11-24T09:38:06.869Z,26.50
2022-11-24T09:43:40.101Z,30.50
2022-11-24T09:49:03.682Z,32.00
2022-11-24T09:54:28.850Z,31.00
2022-11-24T09:59:51.095Z,30.80
2022-11-24T10:05:13.287Z,26.50
2022-11-24T10:10:44.686Z,25.40
2022-11-24T10:16:38.483Z,31.50
2022-11-24T10:22:09.429Z,33.40
2022-11-24T10:27:46.063Z,27.50
2022-11-24T10:33:15.896Z,29.40
2022-11-24T10:38:52.922Z,29.70
2022-11-24T10:44:15.713Z,30.60
2022-11-24T10:49:37.959Z,28.40
2022-11-24T10:55:01.983Z,39.60
2022-11-24T11:00:30.910Z,19.10
2022-11-24T11:11:44.681Z,19.50
2022-11-24T11:17:33.412Z,15.90
2022-11-24T11:22:56.394Z,28.00
2022-11-24T11:28:18.779Z,19.70
2022-11-24T11:39:24.182Z,19.40
2022-11-24T11:44:56.808Z,18.30
2022-11-24T11:50:47.462Z,21.20
2022-11-24T11:56:23.286Z,19.70
2022-11-24T12:02:10.149Z,17.20
2022-11-24T12:07:53.554Z,22.20
2022-11-24T12:13:39.983Z,17.50
2022-11-24T12:19:02.065Z,16.60
2022-11-24T12:24:54.513Z,15.90
2022-11-24T12:30:18.283Z,16.10
2022-11-24T12:35:44.065Z,16.70
2022-11-24T12:41:43.464Z,23.20
2022-11-24T12:47:08.116Z,23.00
2022-11-24T12:52:40.461Z,22.20
2022-11-24T12:58:30.928Z,14.40
2022-11-24T13:04:02.116Z,14.60
2022-11-24T13:09:23.864Z,18.70
2022-11-24T13:14:47.237Z,19.00
2022-11-24T13:20:21.574Z,19.30
2022-11-24T13:26:16.303Z,17.80
2022-11-24T13:31:38.503Z,16.50
2022-11-24T13:37:32.103Z,19.80
2022-11-24T13:42:54.692Z,27.80
2022-11-24T13:48:19.814Z,19.80
2022-11-24T13:53:47.808Z,25.20
2022-11-24T13:59:26.652Z,21.20
2022-11-24T14:04:48.890Z,22.60
2022-11-24T14:10:20.119Z,22.70
2022-11-24T14:15:41.952Z,17.10
2022-11-24T14:21:24.007Z,22.90
2022-11-24T14:26:46.671Z,24.20
2022-11-24T14:32:16.129Z,25.90
2022-11-24T14:37:38.219Z,28.30
2022-11-24T14:42:59.745Z,23.50
2022-11-24T14:48:33.617Z,23.80
2022-11-24T14:53:59.226Z,26.80
2022-11-24T14:59:23.131Z,23.80
2022-11-24T15:05:04.974Z,18.90
2022-11-24T15:10:36.972Z,26.60
2022-11-24T15:16:03.371Z,22.30
2022-11-24T15:21:33.596Z,23.50
2022-11-24T15:27:00.495Z,23.80
2022-11-24T15:32:22.107Z,25.30
2022-11-24T15:37:44.604Z,29.80
2022-11-24T15:43:17.746Z,44.50
2022-11-24T15:48:39.780Z,40.90
2022-11-24T15:54:01.839Z,27.30
2022-11-24T15:59:23.871Z,27.30
2022-11-24T16:04:45.972Z,24.00
2022-11-24T16:10:18.021Z,24.20
2022-11-24T16:15:40.002Z,22.50
2022-11-24T16:21:01.823Z,25.80
2022-11-24T16:26:23.944Z,28.00
2022-11-24T16:31:47.309Z,25.00
2022-11-24T16:37:10.030Z,23.90
2022-11-24T16:42:32.821Z,21.30
2022-11-24T16:47:55.343Z,22.00
2022-11-24T16:53:17.707Z,22.10
2022-11-24T16:58:40.882Z,23.20
2022-11-24T17:04:02.609Z,22.80
2022-11-24T17:09:24.559Z,21.70
2022-11-24T17:15:03.375Z,23.50
2022-11-24T17:20:28.639Z,23.40
2022-11-24T17:25:50.962Z,22.10
2022-11-24T17:31:24.187Z,21.10
2022-11-24T17:36:46.344Z,27.00
2022-11-24T17:42:08.688Z,27.40
2022-11-24T17:47:30.818Z,29.70
2022-11-24T17:52:53.453Z,33.20
2022-11-24T17:58:15.278Z,27.00
2022-11-24T18:03:39.309Z,25.50
2022-11-24T18:09:00.993Z,23.60
2022-11-24T18:14:23.072Z,29.40
2022-11-24T18:19:45.745Z,30.30
2022-11-24T18:25:08.176Z,29.40
2022-11-24T18:30:30.069Z,30.00
2022-11-24T18:36:02.081Z,33.20
2022-11-24T18:41:23.879Z,31.40
2022-11-24T18:46:45.845Z,30.00
2022-11-24T18:52:07.812Z,29.90
2022-11-24T18:57:31.525Z,30.50
2022-11-24T19:02:53.831Z,26.60
2022-11-24T19:08:15.992Z,31.40
2022-11-24T19:13:37.766Z,36.40
2022-11-24T19:19:02.003Z,29.10
2022-11-24T19:24:23.910Z,34.40
2022-11-24T19:29:47.772Z,35.70
2022-11-24T19:35:09.682Z,35.80
2022-11-24T19:40:31.664Z,39.10
2022-11-24T19:45:53.700Z,39.60
2022-11-24T19:51:21.165Z,48.70
2022-11-24T19:56:43.078Z,55.10
2022-11-24T20:02:04.953Z,55.40
2022-11-24T20:07:27.105Z,42.30
2022-11-24T20:12:48.841Z,44.20
2022-11-24T20:18:10.764Z,53.60
2022-11-24T20:23:33.061Z,45.20
2022-11-24T20:28:56.355Z,51.90
2022-11-24T20:34:19.015Z,66.30
2022-11-24T20:39:40.677Z,52.60
2022-11-24T20:45:02.414Z,63.90
2022-11-24T20:50:24.500Z,68.00
2022-11-24T20:55:46.239Z,56.00
2022-11-24T21:01:09.319Z,48.00
2022-11-24T21:06:31.708Z,43.90
2022-11-24T21:11:54.800Z,38.80
2022-11-24T21:17:16.653Z,60.60
2022-11-24T21:22:40.255Z,52.60
2022-11-24T21:28:02.341Z,56.20
2022-11-24T21:33:24.936Z,57.80
2022-11-24T21:38:57.119Z,45.60
2022-11-24T21:44:19.238Z,50.10
2022-11-24T21:49:41.143Z,46.20
2022-11-24T21:55:03.163Z,52.20
2022-11-24T22:00:24.968Z,50.80
2022-11-24T22:05:56.915Z,45.00
2022-11-24T22:11:24.436Z,44.30
2022-11-24T22:16:46.575Z,46.50
2022-11-24T22:22:08.623Z,46.00
2022-11-24T22:27:30.855Z,48.00
2022-11-24T22:32:53.294Z,45.90
2022-11-24T22:38:15.122Z,44.60
2022-11-24T22:43:38.252Z,50.10
2022-11-24T22:49:01.633Z,60.40
2022-11-24T22:54:23.483Z,67.30
2022-11-24T22:59:45.409Z,70.00
2022-11-24T23:05:08.480Z,61.50
2022-11-24T23:10:30.402Z,60.40
2022-11-24T23:15:52.335Z,61.80
2022-11-24T23:21:19.477Z,64.70
2022-11-24T23:26:41.891Z,75.40
2022-11-24T23:32:04.180Z,65.50
2022-11-24T23:37:39.425Z,73.00
2022-11-24T23:43:08.171Z,81.10
2022-11-24T23:48:30.064Z,71.20
2022-11-24T23:53:52.933Z,63.90
2022-11-24T23:59:14.662Z,64.90
